Ibiara, Brazil
Current Conditions -  °F | °C
As of 6:00 AM on Monday 22 Dec 2014 (Local Time) from SBJU Reporting Station
Few Clouds Few Clouds  
Wind Chill: 77°   Ceiling: Unl
Heat Index: 79°   Visibility: 6mi
Dew Point: 70°   Wind: 2mph
Humidity: 78%   Direction: 200°SSW
Pressure: 30"   Gusts: NA
Location:  7.5°S, 38.4°W
Report Text: SBJU 220900Z 20002KT 9999 FEW020 25/21 Q1016
Loading
Personal Weather Stations






























Interactive Weather Map New forecast layout! Learn more

10-Day Weather Forecast

Advertisements
Track Severe Weather on mobile